Grand Forks International Airport
KGFK : now visible

Airfield :











YOU CAN JOIN US ON...

 
LOGIN :

Register | Disclaimer

   EN    FR    IT 

 









Legend :    VFR   Marginal VFR   IFR   Intensive IFR   Very Intensive IFR
Visi :
Ceiling :
>= 8 km
>= 3000ft
5 to 8 km
1000 to 3000 ft
1500m to 5 km
500 to 1000 ft
800 to 1500m
200 to 500 ft
< 800m
< 200 ft
Symbols :   Thunderstorms  Fog  Heavy snow  Heavy precipitations  Wind > 20 kt







- Airport Elevation : 845 ft
- IATA code : GFK


KGFK - Grand Forks International

CURRENT METAR :
  • 212153Z 28015G24KT 10SM FEW014 BKN030CB BKN075 20/16 A2962 RMK AO2 LTG DSNT S RAB31E52 SLP029 CB NE-SE MOV E P0007 T02000156

EXPIRED METARs :
  • 212136Z 24008KT 2SM R35L/4500VP6000FT +RA FEW035CB SCT060 BKN070 21/17 A2961 RMK AO2 LTG DSNT S RAB31 P0000 T02110172
  • 212053Z 20004KT 10SM FEW050 SCT200 22/17 A2959 RMK AO2 SLP019 CB DSNT S-NW T02170167 58007
  • 212026Z 19004KT 10SM FEW014 SCT020 BKN050 22/17 A2960 RMK AO2 TCU DSNT S-NW T02170167
  • 211953Z 21003KT 10SM SCT017 BKN026 BKN045 21/17 A2962 RMK AO2 SLP027 T02060167
  • 211910Z 22004KT 10SM FEW027 OVC045 20/16 A2961 RMK AO2 T02000161

TAF KGFK
Valid from the 21 at 21:00 until the 22 at 18:00 UTC


212118Z 2121/2218 20010KT P6SM VCTS SCT050CB
FM212300 27017G25KT P6SM VCSH BKN070
FM220900 29011KT P6SM SCT080
No reported NOTAMs for that airfield.



MET'MAP, your aeronautical weather chart ! - Copyright ORBIFLY December 2007 - Disclaimer

ORBIFLY MET'MAP TEAM :

Programming & Development : Alexandra Zaïnal
Concept & Development : Baudouin d'Aumeries
Co-Development & Prog : Marc-Olivier Méhu
Technical & hardware support : Manuel Goepfert

Contact : metmap@orbifly.com




SOURCES & CREDITS :

   NOAA       Earth
Advisory